Time;durP1;ratioP1;P1;durP2;ratioP2;P2;SDS_P1;SDS_P2;PMS_P1;PMS_P2;Temp;Humidity;BMP_temperature;BMP_pressure;BME280_temperature;BME280_humidity;BME280_pressure;Samples;Min_cycle;Max_cycle;Signal;HPM_P1;HPM_P2
2023/09/18 00:00:44;;;;;;;11.55;5.78;;;19.20;99.90;;;18.68;100.00;100262.31;4202024;28;20071;-74
2023/09/18 00:02:44;;;;;;;7.97;5.82;;;19.20;99.90;;;18.68;100.00;100263.13;4187472;28;20056;-74
2023/09/18 00:04:45;;;;;;;11.93;7.40;;;19.20;99.90;;;18.69;100.00;100264.78;4185349;28;20017;-74
2023/09/18 00:06:46;;;;;;;13.32;6.70;;;19.30;99.90;;;18.65;100.00;100260.06;4184734;28;20024;-74
2023/09/18 00:08:48;;;;;;;12.98;7.72;;;19.20;99.90;;;18.59;100.00;100258.28;4185005;28;20158;-74
2023/09/18 00:10:55;;;;;;;7.88;6.57;;;19.20;99.90;;;18.52;100.00;100258.34;4185109;28;20063;-74
2023/09/18 00:12:57;;;;;;;13.15;7.18;;;19.10;99.90;;;18.47;100.00;100255.47;4188447;28;20033;-74
2023/09/18 00:14:58;;;;;;;20.38;7.95;;;19.10;99.90;;;18.45;100.00;100257.56;4185184;28;20523;-74
2023/09/18 00:17:00;;;;;;;15.52;7.70;;;19.10;99.90;;;18.45;100.00;100265.56;4185137;28;20033;-74
2023/09/18 00:19:01;;;;;;;9.55;7.45;;;19.00;99.90;;;18.51;100.00;100262.06;4197985;28;20025;-74
2023/09/18 00:21:02;;;;;;;13.75;8.32;;;19.10;99.90;;;18.54;100.00;100242.09;4185278;28;20033;-74
2023/09/18 00:23:03;;;;;;;13.70;7.72;;;19.10;99.90;;;18.56;100.00;100250.69;4191560;28;20026;-74
2023/09/18 00:25:04;;;;;;;12.02;8.00;;;19.10;99.90;;;18.56;100.00;100264.06;4183762;28;20067;-74
2023/09/18 00:27:05;;;;;;;10.13;7.10;;;19.10;99.90;;;18.55;100.00;100252.56;4199390;28;20106;-74
2023/09/18 00:29:06;;;;;;;13.57;8.75;;;19.10;99.90;;;18.55;100.00;100260.56;4201747;28;20154;-74
2023/09/18 00:31:07;;;;;;;13.48;8.35;;;19.10;99.90;;;18.54;100.00;100266.13;4200311;28;20529;-74
2023/09/18 00:33:08;;;;;;;16.05;8.40;;;19.10;99.90;;;18.47;100.00;100254.66;4201639;28;20098;-74
2023/09/18 00:35:09;;;;;;;12.30;8.77;;;19.10;99.90;;;18.46;100.00;100261.84;4200802;28;20032;-74
2023/09/18 00:37:12;;;;;;;12.40;7.70;;;19.00;99.90;;;18.49;100.00;100257.94;4187944;28;20067;-74
2023/09/18 00:39:14;;;;;;;16.38;8.90;;;19.00;99.90;;;18.45;100.00;100262.09;4184547;28;20041;-74
2023/09/18 00:41:15;;;;;;;19.33;9.68;;;19.00;99.90;;;18.44;100.00;100271.94;4184956;28;20021;-74
2023/09/18 00:43:17;;;;;;;17.05;9.50;;;19.00;99.90;;;18.43;100.00;100266.84;4185106;28;20032;-74
2023/09/18 00:45:18;;;;;;;16.73;10.13;;;19.00;99.90;;;18.45;100.00;100268.25;4197952;28;20029;-74
2023/09/18 00:47:19;;;;;;;17.27;9.88;;;19.00;99.90;;;18.42;100.00;100267.84;4183719;28;20408;-74
2023/09/18 00:49:22;;;;;;;14.30;9.27;;;19.00;99.90;;;18.43;100.00;100267.63;4194127;28;20523;-73
2023/09/18 00:51:23;;;;;;;14.30;9.48;;;19.00;99.90;;;18.35;100.00;100265.22;4197512;28;20515;-74
2023/09/18 00:53:26;;;;;;;13.07;8.90;;;18.90;99.90;;;18.26;100.00;100250.53;4185070;28;20425;-74
2023/09/18 00:55:30;;;;;;;12.85;7.68;;;18.90;99.90;;;18.21;100.00;100261.03;4191078;28;20526;-74
2023/09/18 00:57:31;;;;;;;14.93;8.32;;;18.80;99.90;;;18.18;100.00;100253.47;4194768;28;20032;-73
2023/09/18 00:59:33;;;;;;;12.90;9.00;;;18.80;99.90;;;18.22;100.00;100263.47;4201334;28;20028;-74
2023/09/18 01:01:34;;;;;;;20.75;9.48;;;18.80;99.90;;;18.24;100.00;100258.75;4195928;28;20071;-73
2023/09/18 01:03:36;;;;;;;18.60;9.60;;;18.80;99.90;;;18.29;100.00;100254.59;4184704;28;20433;-74
2023/09/18 01:05:36;;;;;;;17.60;10.50;;;18.80;99.90;;;18.34;100.00;100263.59;4194124;28;20029;-74
2023/09/18 01:07:37;;;;;;;26.05;11.00;;;18.90;99.90;;;18.33;100.00;100253.97;4184676;28;20098;-74
2023/09/18 01:09:38;;;;;;;14.55;9.77;;;18.90;99.90;;;18.37;100.00;100255.16;4187326;28;20024;-74
2023/09/18 01:12:19;;;;;;;14.68;10.05;;;18.90;99.90;;;18.33;100.00;100261.97;4184904;28;20028;-74
2023/09/18 01:14:44;;;;;;;16.67;11.70;;;18.90;99.90;;;18.34;100.00;100260.13;4191391;28;20176;-74
2023/09/18 01:16:56;;;;;;;;;;;18.90;99.90;;;18.25;100.00;100262.22;4192975;28;20103;-74
2023/09/18 01:18:57;;;;;;;18.08;10.13;;;18.90;99.90;;;18.26;100.00;100258.53;4187968;28;19917;-74
2023/09/18 01:20:58;;;;;;;18.55;12.13;;;18.90;99.90;;;18.25;100.00;100263.03;4190068;28;20078;-74
2023/09/18 01:22:58;;;;;;;16.75;11.00;;;18.80;99.90;;;18.23;100.00;100261.63;4193339;28;20021;-74
2023/09/18 01:24:59;;;;;;;15.55;10.82;;;18.80;99.90;;;18.19;100.00;100265.75;4204026;28;20029;-73
2023/09/18 01:27:01;;;;;;;13.05;9.55;;;18.80;99.90;;;18.14;100.00;100261.09;4204302;28;20016;-74
2023/09/18 01:29:02;;;;;;;14.45;10.57;;;18.70;99.90;;;18.08;100.00;100251.28;4186296;28;20037;-74
2023/09/18 01:31:03;;;;;;;15.77;10.10;;;18.60;99.90;;;18.06;100.00;100249.88;4187591;28;20098;-74
2023/09/18 01:33:04;;;;;;;17.67;11.27;;;18.60;99.90;;;18.03;100.00;100248.44;4187538;28;20037;-74
2023/09/18 01:35:07;;;;;;;17.55;10.93;;;18.60;99.90;;;18.04;100.00;100244.72;4198908;28;20483;-74
2023/09/18 01:37:11;;;;;;;18.33;11.45;;;18.60;99.90;;;18.04;100.00;100250.06;4186501;28;20064;-74
2023/09/18 01:39:13;;;;;;;25.65;14.30;;;18.60;99.90;;;18.05;100.00;100250.88;4185592;28;20048;-74
2023/09/18 01:41:14;;;;;;;19.83;12.57;;;18.60;99.90;;;18.03;100.00;100248.44;4189268;28;20036;-74
2023/09/18 01:43:15;;;;;;;18.92;12.68;;;18.60;99.90;;;18.00;100.00;100248.88;4186492;28;20512;-73
2023/09/18 01:45:16;;;;;;;16.20;11.73;;;18.60;99.90;;;17.96;100.00;100249.50;4199299;28;20036;-74
2023/09/18 01:47:20;;;;;;;17.67;9.63;;;18.50;99.90;;;17.89;100.00;100246.88;4193197;28;20507;-74
2023/09/18 01:49:35;;;;;;;16.05;11.43;;;18.50;99.90;;;17.88;100.00;100247.09;4187957;28;20518;-73
2023/09/18 01:51:36;;;;;;;18.95;11.10;;;18.40;99.90;;;17.84;100.00;100248.56;4189238;28;20043;-74
2023/09/18 01:53:37;;;;;;;15.25;10.82;;;18.40;99.90;;;17.84;100.00;100243.22;4187098;28;20029;-73
2023/09/18 01:55:37;;;;;;;18.92;12.85;;;18.40;99.90;;;17.90;100.00;100242.38;4195162;28;20395;-73
2023/09/18 01:57:38;;;;;;;19.55;12.70;;;18.40;99.90;;;17.91;100.00;100238.69;4187150;28;20036;-74
2023/09/18 01:59:41;;;;;;;16.38;10.95;;;18.50;99.90;;;17.92;100.00;100235.78;4187046;28;20025;-73
2023/09/18 02:01:42;;;;;;;18.30;11.95;;;18.40;99.90;;;17.92;100.00;100238.44;4191278;28;20035;-73
2023/09/18 02:03:42;;;;;;;22.50;14.27;;;18.50;99.90;;;17.96;100.00;100247.66;4202291;28;20029;-74
2023/09/18 02:05:44;;;;;;;22.67;13.57;;;18.50;99.90;;;18.00;100.00;100250.72;4187129;28;20017;-73
2023/09/18 02:07:45;;;;;;;27.92;13.25;;;18.50;99.90;;;18.03;100.00;100256.44;4201232;28;20496;-73
2023/09/18 02:09:46;;;;;;;20.33;13.40;;;18.60;99.90;;;18.04;100.00;100255.41;4186843;28;20067;-74
2023/09/18 02:11:48;;;;;;;29.90;13.75;;;18.50;99.90;;;18.07;100.00;100251.50;4187089;28;20112;-73
2023/09/18 02:13:49;;;;;;;21.55;12.48;;;18.60;99.90;;;18.06;100.00;100252.53;4185619;28;20017;-73
2023/09/18 02:15:50;;;;;;;20.98;12.85;;;18.60;99.90;;;18.09;100.00;100254.78;4186758;28;20036;-74
2023/09/18 02:17:50;;;;;;;31.02;14.10;;;18.60;99.90;;;18.06;100.00;100249.88;4186962;28;20558;-73
2023/09/18 02:19:51;;;;;;;24.63;13.45;;;18.70;99.90;;;18.09;100.00;100252.91;4194087;28;20032;-74
2023/09/18 02:21:55;;;;;;;18.75;13.45;;;18.60;99.90;;;18.11;100.00;100250.03;4185762;28;20384;-73
2023/09/18 02:23:56;;;;;;;22.50;13.95;;;18.60;99.90;;;18.12;100.00;100241.81;4200302;28;20170;-73
2023/09/18 02:25:58;;;;;;;24.60;14.32;;;18.70;99.90;;;18.10;100.00;100224.34;4185457;28;20032;-74
2023/09/18 02:27:59;;;;;;;22.02;14.35;;;18.60;99.90;;;18.12;100.00;100241.81;4202009;28;20071;-74
2023/09/18 02:30:00;;;;;;;19.73;13.70;;;18.70;99.90;;;18.12;100.00;100230.31;4189156;28;20021;-73
2023/09/18 02:32:01;;;;;;;31.08;16.77;;;18.70;99.90;;;18.10;100.00;100224.34;4201650;28;20035;-74
2023/09/18 02:34:02;;;;;;;21.13;15.15;;;18.70;99.90;;;18.08;100.00;100224.59;4203309;28;20043;-73
2023/09/18 02:36:03;;;;;;;23.70;14.75;;;18.70;99.90;;;18.04;100.00;100222.56;4194852;28;20084;-73
2023/09/18 02:38:04;;;;;;;24.90;14.50;;;18.70;99.90;;;18.04;100.00;100233.25;4196521;28;20068;-74
2023/09/18 02:40:06;;;;;;;20.48;14.80;;;18.60;99.90;;;18.03;100.00;100231.59;4186080;28;20477;-73
2023/09/18 02:42:07;;;;;;;17.17;12.43;;;18.60;99.90;;;18.07;100.00;100238.16;4186488;28;20013;-73
2023/09/18 02:44:07;;;;;;;21.52;14.27;;;18.70;99.90;;;18.09;100.00;100236.91;4193970;28;20082;-73
2023/09/18 02:46:09;;;;;;;20.70;14.25;;;18.60;99.90;;;18.13;100.00;100242.59;4192228;28;20036;-73
2023/09/18 02:48:09;;;;;;;26.15;15.93;;;18.70;99.90;;;18.12;100.00;100235.66;4199047;28;20024;-73
2023/09/18 02:50:11;;;;;;;22.02;13.75;;;18.70;99.90;;;18.14;100.00;100241.56;4202849;28;20031;-73
2023/09/18 02:52:12;;;;;;;25.30;15.02;;;18.70;99.90;;;18.15;100.00;100237.88;4202943;28;20423;-74
2023/09/18 02:54:12;;;;;;;19.52;13.20;;;18.70;99.90;;;18.14;100.00;100237.06;4202529;28;20028;-73
2023/09/18 02:56:13;;;;;;;22.75;14.00;;;18.70;99.90;;;18.19;100.00;100241.72;4184826;28;20108;-73
2023/09/18 02:58:16;;;;;;;24.20;14.88;;;18.80;99.90;;;18.18;100.00;100243.63;4202703;28;20462;-73
2023/09/18 03:00:17;;;;;;;16.83;12.55;;;18.70;99.90;;;18.16;100.00;100240.31;4202874;28;20046;-73
2023/09/18 03:02:18;;;;;;;18.88;13.55;;;18.70;99.90;;;18.12;100.00;100233.81;4191443;28;20013;-73
2023/09/18 03:04:19;;;;;;;20.60;12.50;;;18.70;99.90;;;18.02;100.00;100228.13;4186068;28;20396;-73
2023/09/18 03:06:20;;;;;;;20.23;13.23;;;18.70;99.90;;;17.93;100.00;100229.41;4188293;28;20020;-73
2023/09/18 03:08:21;;;;;;;17.95;12.65;;;18.50;99.90;;;17.86;100.00;100227.84;4185004;28;20095;-73
2023/09/18 03:10:22;;;;;;;15.50;11.13;;;18.40;99.90;;;17.75;100.00;100228.50;4194200;28;20033;-74
2023/09/18 03:12:23;;;;;;;14.40;11.38;;;18.40;99.90;;;17.71;100.00;100238.00;4188926;28;20032;-74
2023/09/18 03:14:23;;;;;;;17.10;10.98;;;18.30;99.90;;;17.71;100.00;100230.00;4200348;28;20017;-73
2023/09/18 03:16:25;;;;;;;14.60;10.45;;;18.30;99.90;;;17.70;100.00;100223.81;4184785;28;20032;-73
2023/09/18 03:18:25;;;;;;;16.27;11.52;;;18.30;99.90;;;17.73;100.00;100230.56;4193799;28;20071;-74
2023/09/18 03:20:28;;;;;;;14.43;11.30;;;18.30;99.90;;;17.72;100.00;100228.94;4202370;28;20518;-74
2023/09/18 03:22:29;;;;;;;16.17;11.32;;;18.30;99.90;;;17.68;100.00;100224.03;4202167;28;20090;-73
2023/09/18 03:24:30;;;;;;;14.77;10.38;;;18.30;99.90;;;17.69;100.00;100225.66;4195340;28;20021;-74
2023/09/18 03:26:31;;;;;;;15.65;9.65;;;18.30;99.90;;;17.68;100.00;100223.22;4185940;28;20029;-74
2023/09/18 03:28:32;;;;;;;16.42;10.20;;;18.30;99.90;;;17.68;100.00;100224.03;4185708;28;20025;-74
2023/09/18 03:30:33;;;;;;;14.18;10.15;;;18.30;99.90;;;17.69;100.00;100239.00;4200038;28;20028;-73
2023/09/18 03:32:33;;;;;;;13.88;9.38;;;18.20;99.90;;;17.68;100.00;100237.38;4185750;28;20025;-73
2023/09/18 03:34:34;;;;;;;16.92;10.23;;;18.30;99.90;;;17.68;100.00;100233.91;4192996;28;20029;-73
2023/09/18 03:36:37;;;;;;;13.43;9.65;;;18.30;99.90;;;17.67;100.00;100232.25;4188505;28;20029;-73
2023/09/18 03:38:38;;;;;;;13.27;9.25;;;18.20;99.90;;;17.64;100.00;100232.69;4183780;28;20037;-73
2023/09/18 03:40:38;;;;;;;15.60;9.75;;;18.20;99.90;;;17.64;100.00;100230.84;4167835;28;20028;-73
2023/09/18 03:42:39;;;;;;;12.75;9.07;;;18.20;99.90;;;17.65;100.00;100239.66;4184523;28;20104;-74
2023/09/18 03:44:40;;;;;;;11.18;8.40;;;18.20;99.90;;;17.64;100.00;100233.50;4185612;28;20025;-74
2023/09/18 03:46:41;;;;;;;13.90;8.77;;;18.20;99.90;;;17.61;100.00;100231.28;4185402;28;20033;-73
2023/09/18 03:48:42;;;;;;;13.30;8.55;;;18.20;99.90;;;17.61;100.00;100228.59;4190864;28;20040;-73
2023/09/18 03:50:43;;;;;;;10.05;8.63;;;18.20;99.90;;;17.63;100.00;100231.03;4185251;28;20040;-74
2023/09/18 03:52:44;;;;;;;11.57;8.50;;;18.20;99.90;;;17.61;100.00;100227.78;4185407;28;20028;-73
2023/09/18 03:54:45;;;;;;;14.23;8.32;;;18.20;99.90;;;17.58;100.00;100225.53;4185042;28;20032;-73
2023/09/18 03:56:46;;;;;;;14.10;8.32;;;18.10;99.90;;;17.55;100.00;100225.97;4185431;28;20033;-73
2023/09/18 03:58:49;;;;;;;13.80;8.70;;;18.10;99.90;;;17.50;100.00;100225.75;4186745;28;20029;-73
2023/09/18 04:00:51;;;;;;;16.50;10.10;;;18.10;99.90;;;17.42;100.00;100223.31;4185165;28;20021;-73
2023/09/18 04:02:52;;;;;;;11.38;7.78;;;18.00;99.90;;;17.37;100.00;100225.81;4199548;28;20299;-74
2023/09/18 04:04:55;;;;;;;8.88;6.93;;;18.00;99.90;;;17.34;100.00;100236.91;4185315;28;20052;-74
2023/09/18 04:06:56;;;;;;;9.15;7.38;;;17.90;99.90;;;17.31;100.00;100238.16;4185382;28;20025;-74
2023/09/18 04:08:57;;;;;;;7.82;6.88;;;17.90;99.90;;;17.36;100.00;100238.31;4196402;28;20036;-74
2023/09/18 04:10:58;;;;;;;13.55;8.23;;;17.90;99.90;;;17.36;100.00;100227.66;4201726;28;20395;-74
2023/09/18 04:12:59;;;;;;;12.05;8.27;;;17.90;99.90;;;17.36;100.00;100225.00;4201888;28;20107;-74
2023/09/18 04:15:00;;;;;;;11.85;8.10;;;18.00;99.90;;;17.35;100.00;100231.34;4192093;28;20021;-74
2023/09/18 04:17:01;;;;;;;11.05;7.70;;;17.90;99.90;;;17.36;100.00;100235.66;4185184;28;20032;-74
2023/09/18 04:19:03;;;;;;;9.70;7.07;;;17.90;99.90;;;17.35;100.00;100233.22;4196386;28;20393;-74
2023/09/18 04:21:03;;;;;;;14.40;7.95;;;17.90;99.90;;;17.34;100.00;100226.25;4189171;28;20020;-73
2023/09/18 04:23:24;;;;;;;10.35;6.68;;;17.90;99.90;;;17.34;100.00;100223.59;4185156;28;20044;-73
2023/09/18 04:25:26;;;;;;;8.05;5.88;;;17.90;99.90;;;17.33;100.00;100224.59;4198011;28;20025;-73
2023/09/18 04:27:26;;;;;;;8.82;6.03;;;17.90;99.90;;;17.34;100.00;100226.25;4183959;28;20024;-74
2023/09/18 04:29:27;;;;;;;8.55;6.07;;;17.90;99.90;;;17.32;100.00;100215.81;4193018;28;20443;-74
2023/09/18 04:31:28;;;;;;;6.88;5.72;;;17.90;99.90;;;17.32;100.00;100223.81;4194522;28;20028;-74
2023/09/18 04:33:29;;;;;;;9.80;5.65;;;17.90;99.90;;;17.31;100.00;100219.50;4186576;28;20154;-74
2023/09/18 04:35:31;;;;;;;7.55;5.20;;;17.90;99.90;;;17.31;100.00;100227.50;4186837;28;20397;-73
2023/09/18 04:37:37;;;;;;;7.40;5.03;;;17.90;99.90;;;17.27;100.00;100228.94;4192190;28;20029;-74
2023/09/18 04:39:38;;;;;;;7.35;5.47;;;17.90;99.90;;;17.23;100.00;100227.75;4188764;28;20504;-74
2023/09/18 04:41:39;;;;;;;5.50;4.55;;;17.80;99.90;;;17.17;100.00;100223.25;4184813;28;20024;-74
2023/09/18 04:43:41;;;;;;;5.63;4.30;;;17.80;99.90;;;17.12;100.00;100218.53;4188735;28;20028;-74
2023/09/18 04:45:42;;;;;;;6.93;5.30;;;17.80;99.90;;;17.06;100.00;100214.06;4201602;28;20031;-74
2023/09/18 04:47:43;;;;;;;6.35;4.85;;;17.70;99.90;;;17.01;100.00;100216.53;4200168;28;20103;-74
2023/09/18 04:49:47;;;;;;;9.48;5.93;;;17.60;99.90;;;16.99;100.00;100215.13;4200129;28;20027;-73
2023/09/18 04:51:48;;;;;;;5.22;4.68;;;17.60;99.90;;;16.88;100.00;100216.56;4201632;28;20046;-74
2023/09/18 04:53:49;;;;;;;8.50;5.45;;;17.50;99.90;;;16.83;100.00;100224.38;4194991;28;20029;-74
2023/09/18 04:55:50;;;;;;;7.78;5.85;;;17.40;99.90;;;16.79;100.00;100227.66;4188300;28;20025;-73
2023/09/18 04:57:51;;;;;;;12.65;5.75;;;17.40;99.90;;;16.75;100.00;100223.78;4190289;28;20085;-73
2023/09/18 04:59:51;;;;;;;10.52;6.95;;;17.40;99.90;;;16.73;100.00;100221.31;4188172;28;20108;-74
2023/09/18 05:01:52;;;;;;;12.80;7.68;;;17.40;99.90;;;16.77;100.00;100224.38;4188129;28;20036;-74
2023/09/18 05:03:53;;;;;;;15.98;8.93;;;17.40;99.90;;;16.83;100.00;100221.72;4188018;28;20033;-74
2023/09/18 05:05:54;;;;;;;10.85;8.05;;;17.40;99.90;;;16.86;100.00;100228.47;4187938;28;20021;-73
2023/09/18 05:07:55;;;;;;;12.82;9.05;;;17.40;99.90;;;16.89;100.00;100231.53;4189805;28;20029;-73
2023/09/18 05:09:56;;;;;;;11.23;8.30;;;17.50;99.90;;;16.91;100.00;100221.47;4198113;28;20025;-73
2023/09/18 05:11:58;;;;;;;9.45;7.22;;;17.50;99.90;;;16.95;100.00;100216.56;4188510;28;20017;-73
2023/09/18 05:13:58;;;;;;;12.80;8.85;;;17.50;99.90;;;16.98;100.00;100221.47;4199463;28;20019;-73
2023/09/18 05:16:00;;;;;;;13.15;9.10;;;17.50;99.90;;;16.99;100.00;100217.78;4204234;28;21388;-73
2023/09/18 05:18:03;;;;;;;13.75;8.68;;;17.50;99.90;;;16.99;100.00;100217.78;4204258;28;20012;-73
2023/09/18 05:20:05;;;;;;;13.65;9.02;;;17.60;99.90;;;17.00;100.00;100214.06;4193506;28;20029;-74
2023/09/18 05:22:10;;;;;;;14.73;9.55;;;17.60;99.90;;;17.02;100.00;100215.50;4186934;28;20071;-73
2023/09/18 05:24:10;;;;;;;;;;;17.60;99.90;;;16.96;100.00;100210.22;4188025;28;20021;-73
2023/09/18 05:26:11;;;;;;;11.90;8.18;;;17.60;99.90;;;16.99;100.00;100217.78;4191997;28;19908;-73
2023/09/18 05:28:13;;;;;;;10.25;8.32;;;17.60;99.90;;;16.98;100.00;100216.13;4192688;28;20056;-73
2023/09/18 05:30:34;;;;;;;13.57;9.27;;;17.50;99.90;;;16.95;100.00;100217.38;4194216;28;20028;-73
2023/09/18 05:32:34;;;;;;;11.85;8.43;;;17.60;99.90;;;16.97;100.00;100225.97;4186837;28;20029;-73
2023/09/18 05:34:35;;;;;;;10.30;8.63;;;17.60;99.90;;;16.97;100.00;100219.81;4194252;28;20024;-73
2023/09/18 05:36:36;;;;;;;9.80;8.30;;;17.50;99.90;;;16.98;100.00;100222.28;4189578;28;20029;-74
2023/09/18 05:38:37;;;;;;;13.82;8.68;;;17.60;99.90;;;16.97;100.00;100217.97;4191916;28;20043;-74
2023/09/18 05:40:38;;;;;;;16.95;10.93;;;17.60;99.90;;;16.99;100.00;100221.25;4186255;28;20021;-74
2023/09/18 05:42:44;;;;;;;17.80;9.95;;;17.60;99.90;;;17.01;100.00;100219.22;4189004;28;20025;-74
2023/09/18 05:44:45;;;;;;;16.77;11.45;;;17.60;99.90;;;17.03;100.00;100221.66;4185105;28;20045;-73
2023/09/18 05:46:46;;;;;;;17.88;11.45;;;17.60;99.90;;;17.02;100.00;100218.16;4185092;28;20025;-74
2023/09/18 05:48:46;;;;;;;16.52;10.45;;;17.60;99.90;;;17.04;100.00;100221.44;4189843;28;20025;-74
2023/09/18 05:50:48;;;;;;;20.40;10.63;;;17.60;99.90;;;17.01;100.00;100221.88;4187339;28;20036;-74
2023/09/18 05:52:49;;;;;;;18.55;11.32;;;17.60;99.90;;;17.01;100.00;100227.19;4187298;28;20024;-74
2023/09/18 05:54:50;;;;;;;16.70;10.63;;;17.60;99.90;;;17.01;100.00;100231.69;4186905;28;20025;-73
2023/09/18 05:56:51;;;;;;;17.88;11.25;;;17.60;99.90;;;17.01;100.00;100223.72;4187236;28;20033;-73
2023/09/18 05:58:52;;;;;;;15.10;10.25;;;17.60;99.90;;;17.00;100.00;100225.56;4188634;28;20040;-73
2023/09/18 06:00:53;;;;;;;14.15;10.07;;;17.60;99.90;;;17.01;100.00;100229.88;4187110;28;20017;-74
2023/09/18 06:02:54;;;;;;;18.02;10.98;;;17.60;99.90;;;17.04;100.00;100234.78;4201258;28;20507;-74
2023/09/18 06:04:57;;;;;;;14.63;10.52;;;17.60;99.90;;;17.08;100.00;100235.19;4184675;28;20022;-74
2023/09/18 06:06:58;;;;;;;12.23;9.10;;;17.60;99.90;;;17.09;100.00;100236.78;4195920;28;20038;-74
2023/09/18 06:08:59;;;;;;;14.63;9.10;;;17.60;99.90;;;17.14;100.00;100245.00;4200911;28;20024;-73
2023/09/18 06:11:00;;;;;;;13.65;10.18;;;17.70;99.90;;;17.20;100.00;100254.81;4187905;28;20029;-74
2023/09/18 06:13:04;;;;;;;13.00;9.70;;;17.70;99.90;;;17.21;100.00;100245.78;4194444;28;20048;-74
2023/09/18 06:15:09;;;;;;;17.08;10.30;;;17.70;99.90;;;17.26;100.00;100253.16;4193608;28;20075;-74
2023/09/18 06:17:10;;;;;;;14.43;9.68;;;17.80;99.90;;;17.30;100.00;100257.00;4185827;28;20033;-73
2023/09/18 06:19:11;;;;;;;14.60;9.20;;;17.80;99.90;;;17.34;100.00;100258.25;4194782;28;20037;-74
2023/09/18 06:21:12;;;;;;;14.63;10.27;;;17.80;99.90;;;17.32;100.00;100253.13;4194940;28;20094;-73
2023/09/18 06:23:13;;;;;;;15.65;10.18;;;17.80;99.90;;;17.38;100.00;100268.25;4202084;28;20032;-74
2023/09/18 06:25:14;;;;;;;12.10;8.45;;;17.90;99.90;;;17.39;100.00;100264.56;4189545;28;20024;-74
2023/09/18 06:27:15;;;;;;;14.77;10.82;;;17.90;99.90;;;17.43;100.00;100272.97;4202167;28;20033;-74
2023/09/18 06:29:16;;;;;;;15.55;10.88;;;17.90;99.90;;;17.46;100.00;100268.03;4193727;28;20032;-74
2023/09/18 06:31:17;;;;;;;16.17;10.35;;;18.00;99.90;;;17.46;100.00;100273.38;4186629;28;20106;-73
2023/09/18 06:33:18;;;;;;;13.35;9.38;;;18.00;99.90;;;17.49;100.00;100275.63;4186630;28;20029;-74
2023/09/18 06:35:19;;;;;;;12.30;9.30;;;18.00;99.90;;;17.52;100.00;100277.84;4200691;28;20032;-74
2023/09/18 06:37:20;;;;;;;14.68;10.00;;;18.10;99.90;;;17.61;100.00;100278.47;4197440;28;20040;-73
2023/09/18 06:39:22;;;;;;;13.60;9.35;;;18.10;99.90;;;17.72;100.00;100283.09;4198279;28;20102;-74
2023/09/18 06:41:23;;;;;;;13.70;10.07;;;18.20;99.90;;;17.85;100.00;100292.91;4203031;28;20016;-73
2023/09/18 06:43:24;;;;;;;18.60;10.68;;;18.30;99.90;;;17.95;100.00;100287.94;4187910;28;20059;-74
2023/09/18 06:45:24;;;;;;;16.95;11.38;;;18.50;99.90;;;18.08;100.00;100298.50;4186483;28;20496;-73
2023/09/18 06:47:25;;;;;;;13.90;10.45;;;18.60;99.90;;;18.20;100.00;100302.13;4186449;28;20033;-73
2023/09/18 06:49:27;;;;;;;15.38;11.35;;;18.60;99.90;;;18.32;100.00;100300.38;4189027;28;20033;-74
2023/09/18 06:51:28;;;;;;;16.58;11.65;;;18.80;99.90;;;18.46;100.00;100309.09;4186078;28;20064;-74
2023/09/18 06:53:29;;;;;;;12.05;9.63;;;18.90;99.90;;;18.57;100.00;100313.78;4186139;28;20025;-74
2023/09/18 06:55:29;;;;;;;13.27;9.95;;;19.00;99.90;;;18.69;100.00;100312.03;4186344;28;20158;-74
2023/09/18 06:57:30;;;;;;;12.77;10.63;;;19.20;99.90;;;18.70;100.00;100308.31;4195844;28;20442;-73
2023/09/18 06:59:33;;;;;;;12.05;9.57;;;19.30;99.90;;;18.79;100.00;100321.19;4185154;28;20078;-73
2023/09/18 07:01:34;;;;;;;11.82;8.98;;;19.30;99.90;;;18.87;100.00;100322.78;4190292;28;20021;-74
2023/09/18 07:03:36;;;;;;;11.52;8.55;;;19.30;99.90;;;18.88;100.00;100320.91;4202662;28;20461;-74
2023/09/18 07:05:37;;;;;;;11.82;8.63;;;19.40;99.90;;;18.92;100.00;100322.09;4190449;28;20516;-76
2023/09/18 07:07:38;;;;;;;11.55;9.45;;;19.40;99.90;;;18.92;100.00;100322.91;4185061;28;20118;-74
2023/09/18 07:09:42;;;;;;;12.50;9.52;;;19.40;99.90;;;18.98;100.00;100318.53;4196595;28;20025;-74
2023/09/18 07:11:44;;;;;;;14.05;9.15;;;19.50;99.90;;;19.09;100.00;100320.47;4185602;28;20403;-74
2023/09/18 07:13:45;;;;;;;9.77;8.18;;;19.50;99.90;;;19.12;100.00;100322.72;4185573;28;20032;-75
2023/09/18 07:15:45;;;;;;;13.63;9.00;;;19.60;99.90;;;19.21;100.00;100321.38;4184857;28;20399;-74
2023/09/18 07:17:48;;;;;;;8.95;7.85;;;19.60;99.90;;;19.26;100.00;100325.03;4187763;28;20025;-74
2023/09/18 07:19:48;;;;;;;11.98;7.93;;;19.70;99.90;;;19.28;100.00;100324.81;4185475;28;20434;-74
2023/09/18 07:21:49;;;;;;;8.43;7.50;;;19.80;99.90;;;19.35;100.00;100328.25;4185445;28;20025;-74
2023/09/18 07:23:51;;;;;;;8.18;7.30;;;19.80;99.90;;;19.34;100.00;100321.25;4198480;28;20033;-73
2023/09/18 07:25:52;;;;;;;10.38;7.72;;;19.80;99.90;;;19.35;100.00;100325.56;4185123;28;20025;-75
2023/09/18 07:27:52;;;;;;;9.52;6.82;;;19.90;99.90;;;19.37;100.00;100330.69;4185925;28;20040;-74
2023/09/18 07:29:56;;;;;;;11.93;7.20;;;19.90;99.90;;;19.33;100.00;100335.66;4190786;28;20025;-73
2023/09/18 07:31:57;;;;;;;8.63;6.68;;;19.90;99.90;;;19.32;100.00;100344.75;4198404;28;20097;-73
2023/09/18 07:33:59;;;;;;;8.52;6.72;;;19.80;99.90;;;19.30;100.00;100346.78;4201108;28;20021;-73
2023/09/18 07:36:00;;;;;;;7.93;5.18;;;19.80;99.90;;;19.25;100.00;100347.47;4193042;28;20048;-73
2023/09/18 07:38:01;;;;;;;8.50;5.35;;;19.80;99.90;;;19.23;100.00;100346.06;4195394;28;20036;-75
2023/09/18 07:40:07;;;;;;;8.95;4.70;;;19.80;99.90;;;19.22;100.00;100352.44;4186543;28;20032;-75
2023/09/18 07:42:07;;;;;;;6.43;4.53;;;19.80;99.90;;;19.24;100.00;100353.03;4184558;28;20021;-75
2023/09/18 07:44:08;;;;;;;5.90;4.00;;;19.80;99.90;;;19.21;100.00;100366.84;4192645;28;20035;-75
2023/09/18 07:46:09;;;;;;;5.50;3.28;;;19.80;99.90;;;19.22;100.00;100368.50;4189183;28;20021;-73
2023/09/18 07:48:10;;;;;;;6.97;2.75;;;19.80;99.90;;;19.24;100.00;100355.69;4185176;28;20025;-75
2023/09/18 07:50:11;;;;;;;7.03;3.33;;;19.90;99.90;;;19.41;100.00;100361.34;4189359;28;20024;-75
2023/09/18 07:52:12;;;;;;;6.00;2.90;;;20.00;99.90;;;19.61;100.00;100365.41;4201453;28;20082;-75
2023/09/18 07:54:16;;;;;;;7.28;3.13;;;20.10;99.90;;;19.80;100.00;100364.34;4201064;28;20052;-76
2023/09/18 07:56:18;;;;;;;7.03;3.33;;;20.30;99.90;;;19.92;100.00;100361.75;4183377;28;20028;-76
2023/09/18 07:58:20;;;;;;;5.95;2.72;;;20.40;99.90;;;20.05;100.00;100355.38;4201344;28;20024;-75
2023/09/18 08:00:22;;;;;;;5.72;1.90;;;20.60;99.90;;;20.19;100.00;100362.22;4192127;28;20563;-75
2023/09/18 08:02:23;;;;;;;3.45;1.77;;;20.70;99.90;;;20.25;100.00;100372.84;4185014;28;20088;-75
2023/09/18 08:04:24;;;;;;;7.47;2.35;;;20.80;99.90;;;20.32;100.00;100368.22;4184445;28;20029;-75
2023/09/18 08:06:26;;;;;;;6.35;2.00;;;20.90;99.90;;;20.41;100.00;100371.38;4188311;28;20023;-75
2023/09/18 08:08:26;;;;;;;5.97;2.08;;;20.90;99.90;;;20.58;100.00;100366.19;4186870;28;20031;-75
2023/09/18 08:10:27;;;;;;;5.72;2.05;;;21.00;99.90;;;20.56;100.00;100363.72;4190772;28;20049;-76
2023/09/18 08:12:28;;;;;;;4.75;1.60;;;21.00;99.90;;;20.41;100.00;100374.06;4185126;28;20048;-76
2023/09/18 08:14:29;;;;;;;4.88;1.90;;;21.00;99.90;;;20.31;100.00;100374.59;4185302;28;20025;-75